Time,TemperatureF,DewpointF,PressureIn,WindDirection,WindDirectionDegrees,WindSpeedMPH,WindSpeedGustMPH,Humidity,HourlyPrecipIn,Conditions,Clouds,dailyrainin,SoftwareType,DateUTC
2013-03-09 00:00:00,61.9,55.3,29.96,SSE,163,7.0,18.0,79,0.00,,,0.00,VWS V14.01,2013-03-09 06:00:00,
2013-03-09 00:05:00,61.8,55.2,29.95,SE,140,8.0,10.0,79,0.00,,,0.00,VWS V14.01,2013-03-09 06:05:00,
2013-03-09 00:10:00,61.8,55.2,29.95,South,177,12.0,14.0,79,0.00,,,0.00,VWS V14.01,2013-03-09 06:10:00,
2013-03-09 00:15:00,61.7,55.1,29.95,SSE,158,7.0,11.0,79,0.00,,,0.00,VWS V14.01,2013-03-09 06:15:00,
2013-03-09 00:20:00,61.7,55.1,29.94,ESE,105,8.0,14.0,79,0.00,,,0.00,VWS V14.01,2013-03-09 06:20:00,
2013-03-09 00:25:00,61.6,55.4,29.94,SE,143,15.0,15.0,80,0.00,,,0.00,VWS V14.01,2013-03-09 06:25:00,
2013-03-09 00:30:00,61.5,55.3,29.94,SSE,158,6.0,16.0,80,0.00,,,0.00,VWS V14.01,2013-03-09 06:30:00,
2013-03-09 00:35:00,61.4,55.2,29.94,ESE,117,11.0,13.0,80,0.00,,,0.00,VWS V14.01,2013-03-09 06:35:00,
2013-03-09 00:40:00,61.3,55.1,29.94,SSW,198,10.0,17.0,80,0.00,,,0.00,VWS V14.01,2013-03-09 06:40:00,
2013-03-09 00:45:00,61.3,55.1,29.93,SE,125,7.0,16.0,80,0.00,,,0.00,VWS V14.01,2013-03-09 06:45:00,
2013-03-09 00:50:00,61.2,55.0,29.94,SE,137,9.0,14.0,80,0.00,,,0.00,VWS V14.01,2013-03-09 06:50:00,
2013-03-09 00:55:00,61.1,54.9,29.93,SE,132,7.0,14.0,80,0.00,,,0.00,VWS V14.01,2013-03-09 06:55:00,
2013-03-09 01:00:00,61.1,55.2,29.93,ESE,121,13.0,16.0,81,0.00,,,0.00,VWS V14.01,2013-03-09 07:00:00,
2013-03-09 01:05:00,61.0,55.1,29.93,SSE,151,2.0,9.0,81,0.00,,,0.00,VWS V14.01,2013-03-09 07:05:00,
2013-03-09 01:10:00,60.9,55.0,29.93,SSE,147,5.0,9.0,81,0.00,,,0.00,VWS V14.01,2013-03-09 07:10:00,
2013-03-09 01:15:00,60.9,55.0,29.93,East,93,7.0,15.0,81,0.00,,,0.00,VWS V14.01,2013-03-09 07:15:00,
2013-03-09 01:20:00,60.8,54.9,29.93,SSE,155,4.0,5.0,81,0.00,,,0.00,VWS V14.01,2013-03-09 07:20:00,
2013-03-09 01:25:00,60.8,55.3,29.93,SSE,163,16.0,16.0,82,0.00,,,0.00,VWS V14.01,2013-03-09 07:25:00,
2013-03-09 01:30:00,60.7,55.2,29.93,ESE,121,8.0,14.0,82,0.00,,,0.00,VWS V14.01,2013-03-09 07:30:00,
2013-03-09 01:35:00,60.7,55.2,29.93,SSE,150,9.0,12.0,82,0.00,,,0.00,VWS V14.01,2013-03-09 07:35:00,
2013-03-09 01:40:00,60.6,55.1,29.93,SE,137,8.0,11.0,82,0.00,,,0.00,VWS V14.01,2013-03-09 07:40:00,
2013-03-09 01:45:00,60.6,55.1,29.92,SE,135,5.0,15.0,82,0.00,,,0.00,VWS V14.01,2013-03-09 07:45:00,
2013-03-09 01:50:00,60.5,55.0,29.92,SE,134,4.0,12.0,82,0.00,,,0.00,VWS V14.01,2013-03-09 07:50:00,
2013-03-09 01:55:00,60.4,54.9,29.92,SE,129,4.0,11.0,82,0.00,,,0.00,VWS V14.01,2013-03-09 07:55:00,
2013-03-09 02:00:00,60.4,55.2,29.92,South,180,7.0,18.0,83,0.00,,,0.00,VWS V14.01,2013-03-09 08:00:00,
2013-03-09 02:05:00,60.4,55.2,29.91,SE,132,8.0,13.0,83,0.00,,,0.00,VWS V14.01,2013-03-09 08:05:00,
2013-03-09 02:10:00,60.3,55.1,29.91,SE,146,11.0,17.0,83,0.00,,,0.00,VWS V14.01,2013-03-09 08:10:00,
2013-03-09 02:15:00,60.3,55.1,29.91,ESE,115,19.0,19.0,83,0.00,,,0.00,VWS V14.01,2013-03-09 08:15:00,
2013-03-09 02:20:00,60.2,55.3,29.90,South,177,8.0,9.0,84,0.00,,,0.00,VWS V14.01,2013-03-09 08:20:00,
2013-03-09 02:25:00,60.2,55.3,29.90,East,99,14.0,17.0,84,0.00,,,0.00,VWS V14.01,2013-03-09 08:25:00,
2013-03-09 02:30:00,60.2,55.3,29.90,SE,130,9.0,18.0,84,0.00,,,0.00,VWS V14.01,2013-03-09 08:30:00,
2013-03-09 02:35:00,60.2,55.3,29.90,SE,135,8.0,15.0,84,0.00,,,0.00,VWS V14.01,2013-03-09 08:35:00,
2013-03-09 02:40:00,60.2,55.3,29.89,SE,136,7.0,15.0,84,0.00,,,0.00,VWS V14.01,2013-03-09 08:40:00,
2013-03-09 02:45:00,60.2,55.3,29.89,SSE,161,9.0,12.0,84,0.00,,,0.00,VWS V14.01,2013-03-09 08:45:00,
2013-03-09 02:50:00,60.3,55.5,29.89,SSE,164,11.0,18.0,84,0.00,,,0.00,VWS V14.01,2013-03-09 08:50:00,
2013-03-09 02:55:00,60.3,55.5,29.89,SSE,163,8.0,14.0,84,0.00,,,0.00,VWS V14.01,2013-03-09 08:55:00,
2013-03-09 03:00:00,60.4,55.5,29.89,SE,138,10.0,13.0,84,0.00,,,0.00,VWS V14.01,2013-03-09 09:00:00,
2013-03-09 03:05:00,60.4,55.5,29.89,SE,127,8.0,14.0,84,0.00,,,0.00,VWS V14.01,2013-03-09 09:05:00,
2013-03-09 03:10:00,60.4,55.5,29.89,SE,144,7.0,14.0,84,0.00,,,0.00,VWS V14.01,2013-03-09 09:10:00,
2013-03-09 03:15:00,60.4,55.9,29.88,South,174,6.0,20.0,85,0.00,,,0.00,VWS V14.01,2013-03-09 09:15:00,
2013-03-09 03:20:00,60.4,55.9,29.88,East,97,6.0,11.0,85,0.00,,,0.00,VWS V14.01,2013-03-09 09:20:00,
2013-03-09 03:25:00,60.4,55.9,29.88,SE,134,3.0,10.0,85,0.00,,,0.00,VWS V14.01,2013-03-09 09:25:00,
2013-03-09 03:30:00,60.4,55.9,29.88,ESE,118,4.0,4.0,85,0.00,,,0.00,VWS V14.01,2013-03-09 09:30:00,
2013-03-09 03:35:00,60.4,55.9,29.88,SSE,150,6.0,8.0,85,0.00,,,0.00,VWS V14.01,2013-03-09 09:35:00,
2013-03-09 03:40:00,60.4,55.9,29.88,SSE,147,3.0,11.0,85,0.00,,,0.00,VWS V14.01,2013-03-09 09:40:00,
2013-03-09 03:45:00,60.3,55.8,29.88,SE,141,6.0,9.0,85,0.00,,,0.00,VWS V14.01,2013-03-09 09:45:00,
2013-03-09 03:50:00,60.3,55.8,29.88,South,169,6.0,13.0,85,0.00,,,0.00,VWS V14.01,2013-03-09 09:50:00,
2013-03-09 03:55:00,60.3,55.8,29.88,SE,131,8.0,11.0,85,0.00,,,0.00,VWS V14.01,2013-03-09 09:55:00,
2013-03-09 04:00:00,60.2,55.7,29.87,SE,140,2.0,7.0,85,0.00,,,0.00,VWS V14.01,2013-03-09 10:00:00,
2013-03-09 04:05:00,60.2,55.7,29.87,SE,124,4.0,7.0,85,0.00,,,0.00,VWS V14.01,2013-03-09 10:05:00,
2013-03-09 04:10:00,60.2,56.0,29.87,SE,139,7.0,8.0,86,0.00,,,0.00,VWS V14.01,2013-03-09 10:10:00,
2013-03-09 04:15:00,60.2,55.7,29.87,SE,130,3.0,8.0,85,0.00,,,0.00,VWS V14.01,2013-03-09 10:15:00,
2013-03-09 04:20:00,60.2,56.0,29.87,SE,133,5.0,7.0,86,0.00,,,0.00,VWS V14.01,2013-03-09 10:20:00,
2013-03-09 04:25:00,60.2,56.0,29.87,SE,126,3.0,9.0,86,0.00,,,0.00,VWS V14.01,2013-03-09 10:25:00,
2013-03-09 04:30:00,60.2,56.0,29.87,ESE,120,10.0,14.0,86,0.00,,,0.00,VWS V14.01,2013-03-09 10:30:00,
2013-03-09 04:35:00,60.2,56.0,29.87,SSE,163,2.0,11.0,86,0.00,,,0.00,VWS V14.01,2013-03-09 10:35:00,
2013-03-09 04:40:00,60.2,56.0,29.87,SE,126,1.0,8.0,86,0.00,,,0.00,VWS V14.01,2013-03-09 10:40:00,
2013-03-09 04:45:00,60.2,56.0,29.86,SE,142,4.0,10.0,86,0.00,,,0.00,VWS V14.01,2013-03-09 10:45:00,
2013-03-09 04:50:00,60.2,56.0,29.86,SE,139,0.0,9.0,86,0.00,,,0.00,VWS V14.01,2013-03-09 10:50:00,
2013-03-09 04:55:00,60.2,56.0,29.86,South,174,5.0,10.0,86,0.00,,,0.00,VWS V14.01,2013-03-09 10:55:00,
2013-03-09 05:00:00,60.2,56.0,29.86,SSE,156,6.0,12.0,86,0.00,,,0.00,VWS V14.01,2013-03-09 11:00:00,
2013-03-09 05:05:00,60.2,56.0,29.86,SSE,155,11.0,13.0,86,0.00,,,0.00,VWS V14.01,2013-03-09 11:05:00,
2013-03-09 05:10:00,60.3,56.1,29.86,ESE,108,5.0,10.0,86,0.00,,,0.00,VWS V14.01,2013-03-09 11:10:00,
2013-03-09 05:15:00,60.3,56.1,29.86,SSE,163,7.0,16.0,86,0.00,,,0.00,VWS V14.01,2013-03-09 11:15:00,
2013-03-09 05:20:00,60.3,56.4,29.86,East,101,9.0,9.0,87,0.00,,,0.00,VWS V14.01,2013-03-09 11:20:00,
2013-03-09 05:25:00,60.4,56.5,29.86,SSE,160,8.0,14.0,87,0.00,,,0.00,VWS V14.01,2013-03-09 11:25:00,
2013-03-09 05:30:00,60.4,56.5,29.85,SSE,152,13.0,13.0,87,0.00,,,0.00,VWS V14.01,2013-03-09 11:30:00,
2013-03-09 05:35:00,60.5,56.3,29.85,SE,132,7.0,10.0,86,0.00,,,0.00,VWS V14.01,2013-03-09 11:35:00,
2013-03-09 05:40:00,60.5,56.3,29.85,SE,144,5.0,11.0,86,0.00,,,0.00,VWS V14.01,2013-03-09 11:40:00,
2013-03-09 05:45:00,60.6,56.7,29.85,SE,131,12.0,15.0,87,0.00,,,0.00,VWS V14.01,2013-03-09 11:45:00,
2013-03-09 05:50:00,60.7,56.5,29.85,South,172,5.0,14.0,86,0.00,,,0.00,VWS V14.01,2013-03-09 11:50:00,
2013-03-09 05:55:00,60.7,56.5,29.85,ESE,120,5.0,16.0,86,0.00,,,0.00,VWS V14.01,2013-03-09 11:55:00,
2013-03-09 06:00:00,60.7,56.5,29.85,ESE,113,10.0,15.0,86,0.00,,,0.00,VWS V14.01,2013-03-09 12:00:00,
2013-03-09 06:05:00,60.8,56.6,29.84,SSE,148,12.0,15.0,86,0.00,,,0.00,VWS V14.01,2013-03-09 12:05:00,
2013-03-09 06:10:00,60.8,56.6,29.84,SE,138,3.0,7.0,86,0.00,,,0.00,VWS V14.01,2013-03-09 12:10:00,
2013-03-09 06:15:00,60.9,56.7,29.84,South,179,7.0,13.0,86,0.00,,,0.00,VWS V14.01,2013-03-09 12:15:00,
2013-03-09 06:20:00,61.0,56.8,29.83,SSE,151,7.0,11.0,86,0.00,,,0.00,VWS V14.01,2013-03-09 12:20:00,
2013-03-09 06:25:00,61.0,56.8,29.83,ESE,107,11.0,12.0,86,0.00,,,0.00,VWS V14.01,2013-03-09 12:25:00,
2013-03-09 06:30:00,61.0,56.8,29.83,ESE,115,11.0,11.0,86,0.00,,,0.00,VWS V14.01,2013-03-09 12:30:00,
2013-03-09 06:35:00,61.1,56.9,29.83,SSE,153,12.0,14.0,86,0.00,,,0.00,VWS V14.01,2013-03-09 12:35:00,
2013-03-09 06:40:00,61.1,56.9,29.83,SSE,152,11.0,13.0,86,0.00,,,0.00,VWS V14.01,2013-03-09 12:40:00,
2013-03-09 06:45:00,61.1,57.2,29.83,SE,144,6.0,11.0,87,0.00,,,0.00,VWS V14.01,2013-03-09 12:45:00,
2013-03-09 06:50:00,61.1,56.9,29.84,SE,138,8.0,14.0,86,0.00,,,0.00,VWS V14.01,2013-03-09 12:50:00,
2013-03-09 06:55:00,61.1,57.2,29.84,East,83,9.0,9.0,87,0.00,,,0.00,VWS V14.01,2013-03-09 12:55:00,
2013-03-09 07:00:00,61.2,57.3,29.83,SE,140,4.0,8.0,87,0.00,,,0.00,VWS V14.01,2013-03-09 13:00:00,
2013-03-09 07:05:00,61.2,57.3,29.84,SSE,157,6.0,6.0,87,0.00,,,0.00,VWS V14.01,2013-03-09 13:05:00,
2013-03-09 07:10:00,61.2,57.3,29.84,SE,143,8.0,15.0,87,0.00,,,0.00,VWS V14.01,2013-03-09 13:10:00,
2013-03-09 07:15:00,61.2,57.3,29.84,ESE,117,12.0,18.0,87,0.00,,,0.00,VWS V14.01,2013-03-09 13:15:00,
2013-03-09 07:20:00,61.2,57.3,29.84,SE,144,13.0,17.0,87,0.00,,,0.00,VWS V14.01,2013-03-09 13:20:00,
2013-03-09 07:25:00,61.2,57.3,29.84,SE,132,9.0,12.0,87,0.00,,,0.00,VWS V14.01,2013-03-09 13:25:00,
2013-03-09 07:30:00,61.3,57.4,29.83,SE,140,13.0,18.0,87,0.00,,,0.00,VWS V14.01,2013-03-09 13:30:00,
2013-03-09 07:35:00,61.3,57.4,29.83,SE,142,9.0,13.0,87,0.00,,,0.00,VWS V14.01,2013-03-09 13:35:00,
2013-03-09 07:40:00,61.3,57.4,29.83,ESE,107,4.0,10.0,87,0.00,,,0.00,VWS V14.01,2013-03-09 13:40:00,
2013-03-09 07:45:00,61.4,57.8,29.83,ESE,111,7.0,13.0,88,0.00,,,0.00,VWS V14.01,2013-03-09 13:45:00,
2013-03-09 07:50:00,61.5,57.6,29.83,SE,143,10.0,14.0,87,0.00,,,0.00,VWS V14.01,2013-03-09 13:50:00,
2013-03-09 07:55:00,61.5,57.6,29.83,ESE,122,14.0,16.0,87,0.00,,,0.00,VWS V14.01,2013-03-09 13:55:00,
2013-03-09 08:00:00,61.6,58.0,29.83,ESE,106,14.0,16.0,88,0.00,,,0.00,VWS V14.01,2013-03-09 14:00:00,
2013-03-09 08:05:00,61.7,58.1,29.83,SSE,160,15.0,18.0,88,0.00,,,0.00,VWS V14.01,2013-03-09 14:05:00,
2013-03-09 08:10:00,61.7,58.1,29.83,SE,140,4.0,12.0,88,0.00,,,0.00,VWS V14.01,2013-03-09 14:10:00,
2013-03-09 08:14:00,61.8,58.2,29.83,ESE,105,8.0,16.0,88,0.00,,,0.00,VWS V14.01,2013-03-09 14:14:00,
2013-03-09 08:20:00,61.9,58.3,29.83,SSE,155,13.0,14.0,88,0.00,,,0.00,VWS V14.01,2013-03-09 14:20:00,
2013-03-09 08:24:00,62.0,58.4,29.83,South,186,4.0,5.0,88,0.00,,,0.00,VWS V14.01,2013-03-09 14:24:00,
2013-03-09 08:29:00,62.0,58.4,29.83,SSW,192,10.0,14.0,88,0.00,,,0.00,VWS V14.01,2013-03-09 14:29:00,
2013-03-09 08:34:00,62.1,58.5,29.83,SSE,165,9.0,11.0,88,0.00,,,0.00,VWS V14.01,2013-03-09 14:34:00,
2013-03-09 08:39:00,62.1,58.5,29.83,ESE,107,12.0,15.0,88,0.00,,,0.00,VWS V14.01,2013-03-09 14:39:00,
2013-03-09 08:44:00,62.2,58.6,29.83,SE,129,8.0,9.0,88,0.00,,,0.00,VWS V14.01,2013-03-09 14:44:00,
2013-03-09 08:49:00,62.3,58.7,29.83,SE,126,4.0,10.0,88,0.00,,,0.00,VWS V14.01,2013-03-09 14:49:00,
2013-03-09 08:54:00,62.4,58.8,29.82,SE,133,9.0,10.0,88,0.00,,,0.00,VWS V14.01,2013-03-09 14:54:00,
2013-03-09 08:59:00,62.5,58.9,29.82,SE,126,6.0,8.0,88,0.00,,,0.00,VWS V14.01,2013-03-09 14:59:00,
2013-03-09 09:04:00,62.6,59.0,29.82,SSE,163,15.0,18.0,88,0.00,,,0.00,VWS V14.01,2013-03-09 15:04:00,
2013-03-09 09:09:00,62.6,59.0,29.82,SSW,193,7.0,8.0,88,0.00,,,0.00,VWS V14.01,2013-03-09 15:09:00,
2013-03-09 09:14:00,62.6,59.0,29.82,SSE,148,5.0,10.0,88,0.00,,,0.00,VWS V14.01,2013-03-09 15:14:00,
2013-03-09 09:19:00,62.6,59.0,29.82,SE,142,4.0,8.0,88,0.00,,,0.00,VWS V14.01,2013-03-09 15:19:00,
2013-03-09 09:24:00,62.6,59.0,29.82,SE,129,5.0,7.0,88,0.00,,,0.00,VWS V14.01,2013-03-09 15:24:00,
2013-03-09 09:29:00,63.2,59.3,29.82,South,175,13.0,13.0,87,0.00,,,0.00,VWS V14.01,2013-03-09 15:29:00,
2013-03-09 09:34:00,63.4,59.5,29.82,SE,128,7.0,7.0,87,0.00,,,0.00,VWS V14.01,2013-03-09 15:34:00,
2013-03-09 09:39:00,63.5,59.6,29.82,ESE,121,13.0,13.0,87,0.00,,,0.00,VWS V14.01,2013-03-09 15:39:00,
2013-03-09 09:44:00,63.5,59.6,29.82,SSE,161,12.0,12.0,87,0.00,,,0.00,VWS V14.01,2013-03-09 15:44:00,
2013-03-09 09:49:00,63.6,59.7,29.82,South,177,13.0,13.0,87,0.00,,,0.00,VWS V14.01,2013-03-09 15:49:00,
2013-03-09 09:54:00,63.7,59.8,29.82,South,182,11.0,17.0,87,0.00,,,0.00,VWS V14.01,2013-03-09 15:54:00,
2013-03-09 09:59:00,63.8,59.9,29.82,SSE,167,11.0,12.0,87,0.00,,,0.00,VWS V14.01,2013-03-09 15:59:00,
2013-03-09 10:04:00,63.8,59.9,29.82,SE,144,3.0,13.0,87,0.00,,,0.00,VWS V14.01,2013-03-09 16:04:00,
2013-03-09 10:09:00,64.0,59.7,29.82,SE,142,9.0,12.0,86,0.00,,,0.00,VWS V14.01,2013-03-09 16:09:00,
2013-03-09 10:14:00,64.0,59.7,29.82,SSW,195,8.0,12.0,86,0.00,,,0.00,VWS V14.01,2013-03-09 16:14:00,
2013-03-09 10:19:00,64.1,59.8,29.82,SSE,148,4.0,6.0,86,0.00,,,0.00,VWS V14.01,2013-03-09 16:19:00,
2013-03-09 10:24:00,64.3,60.0,29.82,South,170,13.0,15.0,86,0.00,,,0.00,VWS V14.01,2013-03-09 16:24:00,
2013-03-09 10:29:00,64.4,60.1,29.82,SSE,163,4.0,6.0,86,0.00,,,0.00,VWS V14.01,2013-03-09 16:29:00,
2013-03-09 10:34:00,64.5,60.2,29.82,South,177,3.0,4.0,86,0.00,,,0.00,VWS V14.01,2013-03-09 16:34:00,
2013-03-09 10:39:00,64.6,60.3,29.82,SW,221,5.0,8.0,86,0.00,,,0.00,VWS V14.01,2013-03-09 16:39:00,
2013-03-09 10:44:00,64.7,60.4,29.82,SE,135,10.0,10.0,86,0.00,,,0.00,VWS V14.01,2013-03-09 16:44:00,
2013-03-09 10:49:00,64.9,60.6,29.82,ESE,119,4.0,6.0,86,0.00,,,0.00,VWS V14.01,2013-03-09 16:49:00,
2013-03-09 10:54:00,65.1,60.5,29.81,SE,133,4.0,4.0,85,0.00,,,0.00,VWS V14.01,2013-03-09 16:54:00,
2013-03-09 10:59:00,65.3,60.7,29.81,SSE,165,6.0,6.0,85,0.00,,,0.00,VWS V14.01,2013-03-09 16:59:00,
2013-03-09 11:04:00,65.7,61.1,29.81,SSE,150,17.0,17.0,85,0.00,,,0.00,VWS V14.01,2013-03-09 17:04:00,
2013-03-09 11:09:00,66.1,61.1,29.81,SSE,165,5.0,10.0,84,0.00,,,0.00,VWS V14.01,2013-03-09 17:09:00,
2013-03-09 11:14:00,66.3,61.0,29.81,SSE,155,5.0,7.0,83,0.00,,,0.00,VWS V14.01,2013-03-09 17:14:00,
2013-03-09 11:19:00,66.6,61.3,29.81,SE,138,7.0,9.0,83,0.00,,,0.00,VWS V14.01,2013-03-09 17:19:00,
2013-03-09 11:24:00,66.8,61.1,29.81,SSE,158,9.0,10.0,82,0.00,,,0.00,VWS V14.01,2013-03-09 17:24:00,
2013-03-09 11:29:00,67.0,61.3,29.80,South,187,14.0,14.0,82,0.00,,,0.00,VWS V14.01,2013-03-09 17:29:00,
2013-03-09 11:34:00,67.1,61.4,29.80,East,101,8.0,10.0,82,0.00,,,0.00,VWS V14.01,2013-03-09 17:34:00,
2013-03-09 11:39:00,67.1,61.4,29.81,SSW,193,20.0,20.0,82,0.00,,,0.00,VWS V14.01,2013-03-09 17:39:00,
2013-03-09 11:44:00,67.1,61.4,29.80,South,188,7.0,8.0,82,0.00,,,0.00,VWS V14.01,2013-03-09 17:44:00,
2013-03-09 11:49:00,67.1,61.4,29.80,SSE,150,8.0,11.0,82,0.00,,,0.00,VWS V14.01,2013-03-09 17:49:00,
2013-03-09 11:54:00,67.1,61.4,29.80,South,182,5.0,6.0,82,0.00,,,0.00,VWS V14.01,2013-03-09 17:54:00,
2013-03-09 11:59:00,67.1,61.4,29.80,SSE,163,5.0,7.0,82,0.00,,,0.00,VWS V14.01,2013-03-09 17:59:00,
2013-03-09 12:04:00,67.1,61.4,29.80,SE,143,12.0,12.0,82,0.00,,,0.00,VWS V14.01,2013-03-09 18:04:00,
2013-03-09 12:09:00,67.1,61.4,29.79,South,184,6.0,7.0,82,0.00,,,0.00,VWS V14.01,2013-03-09 18:09:00,
2013-03-09 12:14:00,67.1,61.4,29.79,South,176,9.0,9.0,82,0.00,,,0.00,VWS V14.01,2013-03-09 18:14:00,
2013-03-09 12:19:00,67.2,61.5,29.79,SSW,192,7.0,7.0,82,0.00,,,0.00,VWS V14.01,2013-03-09 18:19:00,
2013-03-09 12:24:00,67.2,61.5,29.78,SE,139,6.0,6.0,82,0.00,,,0.00,VWS V14.01,2013-03-09 18:24:00,
2013-03-09 12:29:00,67.3,61.6,29.78,SE,142,19.0,23.0,82,0.00,,,0.00,VWS V14.01,2013-03-09 18:29:00,
2013-03-09 12:34:00,67.3,61.6,29.78,South,185,11.0,11.0,82,0.00,,,0.00,VWS V14.01,2013-03-09 18:34:00,
2013-03-09 12:39:00,67.3,61.6,29.78,SSE,157,6.0,9.0,82,0.00,,,0.00,VWS V14.01,2013-03-09 18:39:00,
2013-03-09 12:44:00,67.4,61.7,29.78,South,170,7.0,7.0,82,0.00,,,0.00,VWS V14.01,2013-03-09 18:44:00,
2013-03-09 12:49:00,67.4,61.7,29.77,South,178,10.0,10.0,82,0.00,,,0.00,VWS V14.01,2013-03-09 18:49:00,
2013-03-09 12:54:00,67.4,61.7,29.77,SSE,153,12.0,12.0,82,0.00,,,0.00,VWS V14.01,2013-03-09 18:54:00,
2013-03-09 12:59:00,67.4,61.7,29.76,SSE,148,15.0,15.0,82,0.00,,,0.00,VWS V14.01,2013-03-09 18:59:00,
2013-03-09 13:04:00,67.4,61.7,29.76,SE,138,7.0,7.0,82,0.00,,,0.00,VWS V14.01,2013-03-09 19:04:00,
2013-03-09 13:09:00,67.4,62.1,29.76,SSE,167,15.0,15.0,83,0.00,,,0.00,VWS V14.01,2013-03-09 19:09:00,
2013-03-09 13:14:00,67.4,62.1,29.75,SSE,153,10.0,10.0,83,0.00,,,0.00,VWS V14.01,2013-03-09 19:14:00,
2013-03-09 13:19:00,67.4,62.1,29.75,SE,146,9.0,18.0,83,0.00,,,0.00,VWS V14.01,2013-03-09 19:19:00,
2013-03-09 13:24:00,67.3,62.0,29.75,SSE,152,17.0,17.0,83,0.00,,,0.00,VWS V14.01,2013-03-09 19:24:00,
2013-03-09 13:29:00,67.3,62.0,29.75,South,171,4.0,18.0,83,0.00,,,0.00,VWS V14.01,2013-03-09 19:29:00,
2013-03-09 13:34:00,67.3,62.0,29.74,SE,124,8.0,15.0,83,0.00,,,0.00,VWS V14.01,2013-03-09 19:34:00,
2013-03-09 13:39:00,67.3,62.3,29.74,SSE,152,7.0,16.0,84,0.00,,,0.00,VWS V14.01,2013-03-09 19:39:00,
2013-03-09 13:44:00,67.4,62.4,29.74,South,186,7.0,13.0,84,0.00,,,0.00,VWS V14.01,2013-03-09 19:44:00,
2013-03-09 13:49:00,67.4,62.4,29.73,SE,137,5.0,15.0,84,0.00,,,0.00,VWS V14.01,2013-03-09 19:49:00,
2013-03-09 13:54:00,67.3,62.3,29.73,South,186,7.0,16.0,84,0.00,,,0.00,VWS V14.01,2013-03-09 19:54:00,
2013-03-09 13:59:00,67.3,62.6,29.73,SE,146,14.0,19.0,85,0.00,,,0.00,VWS V14.01,2013-03-09 19:59:00,
2013-03-09 14:04:00,67.2,62.5,29.72,SSE,152,1.0,14.0,85,0.00,,,0.00,VWS V14.01,2013-03-09 20:04:00,
2013-03-09 14:09:00,67.4,62.7,29.72,South,186,6.0,16.0,85,0.00,,,0.00,VWS V14.01,2013-03-09 20:09:00,
2013-03-09 14:14:00,67.6,62.9,29.71,SSE,155,8.0,15.0,85,0.00,,,0.00,VWS V14.01,2013-03-09 20:14:00,
2013-03-09 14:19:00,67.8,63.1,29.71,South,171,11.0,16.0,85,0.00,,,0.00,VWS V14.01,2013-03-09 20:19:00,
2013-03-09 14:24:00,68.1,63.4,29.70,East,80,9.0,17.0,85,0.00,,,0.00,VWS V14.01,2013-03-09 20:24:00,
2013-03-09 14:29:00,68.1,63.4,29.70,SSE,152,5.0,15.0,85,0.00,,,0.00,VWS V14.01,2013-03-09 20:29:00,
2013-03-09 14:34:00,68.1,63.1,29.70,SSE,165,6.0,20.0,84,0.00,,,0.00,VWS V14.01,2013-03-09 20:34:00,
2013-03-09 14:39:00,67.9,63.2,29.70,South,182,7.0,19.0,85,0.00,,,0.00,VWS V14.01,2013-03-09 20:39:00,
2013-03-09 14:44:00,67.7,63.0,29.70,SE,146,11.0,22.0,85,0.00,,,0.00,VWS V14.01,2013-03-09 20:44:00,
2013-03-09 14:49:00,67.6,62.9,29.70,SE,134,6.0,13.0,85,0.00,,,0.00,VWS V14.01,2013-03-09 20:49:00,
2013-03-09 14:54:00,67.5,63.2,29.70,SSE,152,22.0,22.0,86,0.00,,,0.00,VWS V14.01,2013-03-09 20:54:00,
2013-03-09 14:59:00,67.4,63.1,29.69,SE,144,12.0,17.0,86,0.00,,,0.00,VWS V14.01,2013-03-09 20:59:00,
2013-03-09 15:04:00,67.4,63.4,29.69,SE,138,8.0,16.0,87,0.00,,,0.00,VWS V14.01,2013-03-09 21:04:00,
2013-03-09 15:09:00,67.4,63.4,29.69,South,179,7.0,18.0,87,0.00,,,0.00,VWS V14.01,2013-03-09 21:09:00,
2013-03-09 15:14:00,67.4,63.4,29.69,SE,145,7.0,15.0,87,0.00,,,0.00,VWS V14.01,2013-03-09 21:14:00,
2013-03-09 15:19:00,67.4,63.4,29.69,SSE,165,14.0,16.0,87,0.00,,,0.00,VWS V14.01,2013-03-09 21:19:00,
2013-03-09 15:24:00,67.4,63.4,29.69,SSE,166,3.0,11.0,87,0.00,,,0.00,VWS V14.01,2013-03-09 21:24:00,
2013-03-09 15:29:00,67.4,63.4,29.69,SSE,164,9.0,16.0,87,0.00,,,0.00,VWS V14.01,2013-03-09 21:29:00,
2013-03-09 15:34:00,67.4,63.4,29.68,SSE,159,5.0,18.0,87,0.00,,,0.00,VWS V14.01,2013-03-09 21:34:00,
2013-03-09 15:39:00,67.6,63.6,29.68,SSE,157,6.0,16.0,87,0.00,,,0.00,VWS V14.01,2013-03-09 21:39:00,
2013-03-09 15:44:00,68.0,63.7,29.67,SSE,166,7.0,18.0,86,0.00,,,0.00,VWS V14.01,2013-03-09 21:44:00,
2013-03-09 15:49:00,68.2,63.9,29.67,South,180,6.0,20.0,86,0.00,,,0.00,VWS V14.01,2013-03-09 21:49:00,
2013-03-09 15:54:00,68.3,63.6,29.66,SSE,155,9.0,21.0,85,0.00,,,0.00,VWS V14.01,2013-03-09 21:54:00,
2013-03-09 15:59:00,68.5,63.8,29.66,East,83,10.0,22.0,85,0.00,,,0.00,VWS V14.01,2013-03-09 21:59:00,
2013-03-09 16:04:00,68.8,64.1,29.65,East,92,6.0,21.0,85,0.00,,,0.00,VWS V14.01,2013-03-09 22:04:00,
2013-03-09 16:09:00,69.1,64.4,29.65,ESE,121,14.0,20.0,85,0.00,,,0.00,VWS V14.01,2013-03-09 22:09:00,
2013-03-09 16:14:00,69.3,64.3,29.64,South,188,10.0,25.0,84,0.00,,,0.00,VWS V14.01,2013-03-09 22:14:00,
2013-03-09 16:19:00,69.3,64.3,29.64,SSE,155,11.0,21.0,84,0.00,,,0.00,VWS V14.01,2013-03-09 22:19:00,
2013-03-09 16:24:00,69.1,64.1,29.64,SSE,155,8.0,30.0,84,0.00,,,0.00,VWS V14.01,2013-03-09 22:24:00,
2013-03-09 16:29:00,69.0,64.3,29.63,South,176,6.0,20.0,85,0.00,,,0.00,VWS V14.01,2013-03-09 22:29:00,
2013-03-09 16:34:00,69.1,64.4,29.63,SE,142,16.0,22.0,85,0.00,,,0.00,VWS V14.01,2013-03-09 22:34:00,
2013-03-09 16:39:00,69.2,64.2,29.63,South,178,9.0,24.0,84,0.00,,,0.00,VWS V14.01,2013-03-09 22:39:00,
2013-03-09 16:44:00,69.2,64.2,29.63,South,173,11.0,21.0,84,0.00,,,0.00,VWS V14.01,2013-03-09 22:44:00,
2013-03-09 16:49:00,69.1,64.1,29.62,ESE,107,21.0,22.0,84,0.00,,,0.00,VWS V14.01,2013-03-09 22:49:00,
2013-03-09 16:54:00,69.1,64.1,29.62,SSE,162,4.0,18.0,84,0.00,,,0.00,VWS V14.01,2013-03-09 22:54:00,
2013-03-09 16:59:00,68.9,63.9,29.61,SE,140,9.0,19.0,84,0.00,,,0.00,VWS V14.01,2013-03-09 22:59:00,
2013-03-09 17:04:00,68.7,64.0,29.62,SE,128,10.0,20.0,85,0.00,,,0.00,VWS V14.01,2013-03-09 23:04:00,
2013-03-09 17:09:00,68.5,63.8,29.63,SSE,161,11.0,17.0,85,0.00,,,0.00,VWS V14.01,2013-03-09 23:09:00,
2013-03-09 17:14:00,68.3,64.0,29.64,SSW,209,11.0,15.0,86,0.00,,,0.00,VWS V14.01,2013-03-09 23:14:00,
2013-03-09 17:19:00,68.1,63.8,29.65,SE,131,4.0,16.0,86,0.00,,,0.00,VWS V14.01,2013-03-09 23:19:00,
2013-03-09 17:24:00,68.0,63.7,29.64,South,185,7.0,12.0,86,0.00,,,0.00,VWS V14.01,2013-03-09 23:24:00,
2013-03-09 17:29:00,67.9,63.6,29.65,SE,139,8.0,11.0,86,0.00,,,0.00,VWS V14.01,2013-03-09 23:29:00,
2013-03-09 17:34:00,67.9,63.9,29.65,SE,142,7.0,14.0,87,0.00,,,0.00,VWS V14.01,2013-03-09 23:34:00,
2013-03-09 17:39:00,67.8,63.8,29.65,SSE,161,10.0,13.0,87,0.00,,,0.00,VWS V14.01,2013-03-09 23:39:00,
2013-03-09 17:44:00,67.8,63.8,29.65,South,170,8.0,12.0,87,0.00,,,0.00,VWS V14.01,2013-03-09 23:44:00,
2013-03-09 17:49:00,67.7,63.7,29.65,SSE,157,4.0,13.0,87,0.00,,,0.00,VWS V14.01,2013-03-09 23:49:00,
2013-03-09 17:54:00,67.7,63.7,29.65,SSE,151,4.0,14.0,87,0.00,,,0.00,VWS V14.01,2013-03-09 23:54:00,
2013-03-09 17:59:00,67.6,63.6,29.65,South,185,2.0,13.0,87,0.00,,,0.00,VWS V14.01,2013-03-09 23:59:00,
2013-03-09 18:04:00,67.6,63.6,29.64,SSW,194,7.0,17.0,87,0.00,,,0.00,VWS V14.01,2013-03-10 00:04:00,
2013-03-09 18:09:00,67.6,63.6,29.65,ESE,109,8.0,19.0,87,0.00,,,0.00,VWS V14.01,2013-03-10 00:09:00,
2013-03-09 18:14:00,67.7,63.4,29.65,SSE,148,6.0,14.0,86,0.00,,,0.00,VWS V14.01,2013-03-10 00:14:00,
2013-03-09 18:19:00,67.8,63.5,29.64,SE,146,10.0,18.0,86,0.00,,,0.00,VWS V14.01,2013-03-10 00:19:00,
2013-03-09 18:24:00,67.9,63.6,29.64,SE,127,8.0,18.0,86,0.00,,,0.00,VWS V14.01,2013-03-10 00:24:00,
2013-03-09 18:29:00,68.0,63.3,29.64,ESE,109,14.0,22.0,85,0.00,,,0.00,VWS V14.01,2013-03-10 00:29:00,
2013-03-09 18:34:00,68.1,63.1,29.65,SSE,167,4.0,16.0,84,0.00,,,0.00,VWS V14.01,2013-03-10 00:34:00,
2013-03-09 18:39:00,68.2,63.2,29.65,South,180,5.0,14.0,84,0.00,,,0.00,VWS V14.01,2013-03-10 00:39:00,
2013-03-09 18:44:00,68.2,63.2,29.65,ESE,115,4.0,13.0,84,0.00,,,0.00,VWS V14.01,2013-03-10 00:44:00,
2013-03-09 18:49:00,68.2,62.8,29.65,SSE,167,3.0,10.0,83,0.00,,,0.00,VWS V14.01,2013-03-10 00:49:00,
2013-03-09 18:54:00,68.2,62.8,29.66,SSW,210,6.0,11.0,83,0.00,,,0.00,VWS V14.01,2013-03-10 00:54:00,
2013-03-09 18:59:00,68.2,62.8,29.66,South,179,7.0,11.0,83,0.00,,,0.00,VWS V14.01,2013-03-10 00:59:00,
2013-03-09 19:04:00,68.2,62.8,29.66,South,173,5.0,12.0,83,0.00,,,0.00,VWS V14.01,2013-03-10 01:04:00,
2013-03-09 19:09:00,68.2,62.8,29.66,SSE,163,2.0,11.0,83,0.00,,,0.00,VWS V14.01,2013-03-10 01:09:00,
2013-03-09 19:14:00,68.1,62.8,29.66,SSE,167,4.0,10.0,83,0.00,,,0.00,VWS V14.01,2013-03-10 01:14:00,
2013-03-09 19:19:00,68.1,62.8,29.67,SSW,202,4.0,10.0,83,0.00,,,0.00,VWS V14.01,2013-03-10 01:19:00,
2013-03-09 19:24:00,68.1,62.8,29.67,SSW,198,5.0,8.0,83,0.00,,,0.00,VWS V14.01,2013-03-10 01:24:00,
2013-03-09 19:29:00,68.0,62.7,29.67,SSW,199,4.0,6.0,83,0.00,,,0.00,VWS V14.01,2013-03-10 01:29:00,
2013-03-09 19:34:00,67.9,62.5,29.67,SSW,202,2.0,4.0,83,0.00,,,0.00,VWS V14.01,2013-03-10 01:34:00,
2013-03-09 19:39:00,67.9,62.5,29.67,SSW,194,2.0,4.0,83,0.00,,,0.00,VWS V14.01,2013-03-10 01:39:00,
2013-03-09 19:44:00,67.8,62.5,29.68,SW,220,4.0,4.0,83,0.00,,,0.00,VWS V14.01,2013-03-10 01:44:00,
2013-03-09 19:49:00,67.7,62.7,29.69,West,277,11.0,11.0,84,0.00,,,0.00,VWS V14.01,2013-03-10 01:49:00,
2013-03-09 19:54:00,67.0,60.6,29.69,West,270,4.0,9.0,80,0.00,,,0.00,VWS V14.01,2013-03-10 01:54:00,
2013-03-09 19:59:00,66.2,58.8,29.69,WNW,295,6.0,12.0,77,0.00,,,0.00,VWS V14.01,2013-03-10 01:59:00,
2013-03-09 20:04:00,65.3,58.3,29.68,NW,315,11.0,12.0,78,0.00,,,0.00,VWS V14.01,2013-03-10 02:04:00,
2013-03-09 20:09:00,64.5,58.2,29.67,WNW,298,6.0,14.0,80,0.00,,,0.00,VWS V14.01,2013-03-10 02:09:00,
2013-03-09 20:14:00,64.3,58.3,29.68,WNW,288,4.0,7.0,81,0.00,,,0.00,VWS V14.01,2013-03-10 02:14:00,
2013-03-09 20:19:00,63.8,58.2,29.69,WNW,299,5.0,11.0,82,0.00,,,0.00,VWS V14.01,2013-03-10 02:19:00,
2013-03-09 20:24:00,63.5,58.2,29.68,WNW,299,4.0,14.0,83,0.00,,,0.00,VWS V14.01,2013-03-10 02:24:00,
2013-03-09 20:29:00,63.3,58.1,29.69,SSW,211,5.0,8.0,83,0.00,,,0.00,VWS V14.01,2013-03-10 02:29:00,
2013-03-09 20:34:00,63.1,58.2,29.69,WSW,242,4.0,4.0,84,0.01,,,0.01,VWS V14.01,2013-03-10 02:34:00,
2013-03-09 20:39:00,62.8,58.2,29.68,NNW,342,1.0,4.0,85,0.02,,,0.02,VWS V14.01,2013-03-10 02:39:00,
2013-03-09 20:44:00,62.6,58.4,29.69,WNW,292,0.0,5.0,86,0.02,,,0.02,VWS V14.01,2013-03-10 02:44:00,
2013-03-09 20:49:00,62.5,58.6,29.70,West,275,2.0,4.0,87,0.03,,,0.03,VWS V14.01,2013-03-10 02:49:00,
2013-03-09 20:54:00,62.2,58.3,29.66,NNE,24,4.0,7.0,87,0.04,,,0.04,VWS V14.01,2013-03-10 02:54:00,
2013-03-09 20:59:00,62.0,58.4,29.68,East,90,0.0,8.0,88,0.05,,,0.05,VWS V14.01,2013-03-10 02:59:00,
2013-03-09 21:04:00,61.8,58.5,29.69,NW,311,4.0,5.0,89,0.06,,,0.06,VWS V14.01,2013-03-10 03:04:00,
2013-03-09 21:09:00,61.6,58.3,29.70,East,92,2.0,3.0,89,0.08,,,0.08,VWS V14.01,2013-03-10 03:09:00,
2013-03-09 21:14:00,61.4,58.5,29.72,South,187,5.0,5.0,90,0.09,,,0.09,VWS V14.01,2013-03-10 03:14:00,
2013-03-09 21:19:00,61.3,58.3,29.70,SSW,207,0.0,5.0,90,0.12,,,0.12,VWS V14.01,2013-03-10 03:19:00,
2013-03-09 21:24:00,61.1,58.5,29.69,NW,317,5.0,6.0,91,0.15,,,0.15,VWS V14.01,2013-03-10 03:24:00,
2013-03-09 21:29:00,60.9,58.3,29.70,ENE,59,4.0,8.0,91,0.18,,,0.18,VWS V14.01,2013-03-10 03:29:00,
2013-03-09 21:34:00,60.8,58.5,29.68,NNW,338,6.0,10.0,92,0.20,,,0.20,VWS V14.01,2013-03-10 03:34:00,
2013-03-09 21:39:00,60.6,58.3,29.70,ESE,107,7.0,11.0,92,0.23,,,0.24,VWS V14.01,2013-03-10 03:39:00,
2013-03-09 21:44:00,60.5,58.2,29.69,East,97,1.0,3.0,92,0.23,,,0.25,VWS V14.01,2013-03-10 03:44:00,
2013-03-09 21:49:00,60.4,58.1,29.69,East,97,0.0,2.0,92,0.23,,,0.25,VWS V14.01,2013-03-10 03:49:00,
2013-03-09 21:54:00,60.4,58.1,29.68,East,97,1.0,3.0,92,0.21,,,0.25,VWS V14.01,2013-03-10 03:54:00,
2013-03-09 21:59:00,60.3,58.0,29.68,NNE,13,2.0,3.0,92,0.21,,,0.25,VWS V14.01,2013-03-10 03:59:00,
2013-03-09 22:04:00,60.3,58.3,29.69,NNE,17,4.0,5.0,93,0.20,,,0.25,VWS V14.01,2013-03-10 04:04:00,
2013-03-09 22:09:00,60.2,58.2,29.68,NNW,346,0.0,4.0,93,0.19,,,0.25,VWS V14.01,2013-03-10 04:09:00,
2013-03-09 22:14:00,60.1,58.1,29.68,NNE,13,5.0,6.0,93,0.17,,,0.25,VWS V14.01,2013-03-10 04:14:00,
2013-03-09 22:19:00,59.9,57.9,29.70,NNE,16,0.0,6.0,93,0.24,,,0.33,VWS V14.01,2013-03-10 04:19:00,
2013-03-09 22:24:00,59.7,57.7,29.69,NNE,14,5.0,7.0,93,0.46,,,0.58,VWS V14.01,2013-03-10 04:24:00,
2013-03-09 22:29:00,59.7,57.7,29.69,NNE,29,0.0,5.0,93,0.54,,,0.70,VWS V14.01,2013-03-10 04:29:00,
2013-03-09 22:34:00,59.6,57.6,29.67,NNW,333,5.0,9.0,93,0.63,,,0.81,VWS V14.01,2013-03-10 04:34:00,
2013-03-09 22:39:00,59.3,57.3,29.67,NNE,17,0.0,11.0,93,0.66,,,0.86,VWS V14.01,2013-03-10 04:39:00,
2013-03-09 22:44:00,59.0,57.0,29.69,NNW,340,3.0,5.0,93,0.62,,,0.86,VWS V14.01,2013-03-10 04:44:00,
2013-03-09 22:49:00,58.9,57.2,29.68,NNW,348,2.0,7.0,94,0.61,,,0.86,VWS V14.01,2013-03-10 04:49:00,
2013-03-09 22:54:00,58.7,57.0,29.67,North,5,3.0,8.0,94,0.61,,,0.86,VWS V14.01,2013-03-10 04:54:00,
2013-03-09 22:59:00,58.6,56.9,29.68,NW,323,3.0,4.0,94,0.61,,,0.86,VWS V14.01,2013-03-10 04:59:00,
2013-03-09 23:00:00,58.6,56.9,29.68,NW,326,1.0,2.0,94,0.62,,,0.87,VWS V14.01,2013-03-10 05:00:00,
2013-03-09 23:05:00,58.5,56.8,29.67,North,10,0.0,2.0,94,0.63,,,0.88,VWS V14.01,2013-03-10 05:05:00,
2013-03-09 23:10:00,58.4,56.7,29.68,North,355,0.0,0.0,94,0.64,,,0.89,VWS V14.01,2013-03-10 05:10:00,
2013-03-09 23:15:00,58.4,56.7,29.68,North,355,0.0,1.0,94,0.66,,,0.91,VWS V14.01,2013-03-10 05:15:00,
2013-03-09 23:20:00,58.4,56.7,29.69,North,355,0.0,2.0,94,0.54,,,0.91,VWS V14.01,2013-03-10 05:20:00,
2013-03-09 23:25:00,58.4,56.7,29.69,North,355,2.0,3.0,94,0.32,,,0.91,VWS V14.01,2013-03-10 05:25:00,
2013-03-09 23:30:00,58.4,56.7,29.69,WNW,285,4.0,4.0,94,0.19,,,0.91,VWS V14.01,2013-03-10 05:30:00,
2013-03-09 23:35:00,58.4,56.7,29.69,WNW,288,1.0,4.0,94,0.09,,,0.91,VWS V14.01,2013-03-10 05:35:00,
2013-03-09 23:40:00,58.4,56.7,29.68,WNW,288,0.0,1.0,94,0.05,,,0.91,VWS V14.01,2013-03-10 05:40:00,
2013-03-09 23:45:00,58.2,56.8,29.69,WNW,282,1.0,2.0,95,0.15,,,1.01,VWS V14.01,2013-03-10 05:45:00,
2013-03-09 23:50:00,58.1,56.7,29.69,West,267,0.0,5.0,95,0.20,,,1.06,VWS V14.01,2013-03-10 05:50:00,
2013-03-09 23:55:00,58.1,56.7,29.70,WSW,257,2.0,3.0,95,0.22,,,1.08,VWS V14.01,2013-03-10 05:55:00,